Time;durP1;ratioP1;P1;durP2;ratioP2;P2;SDS_P1;SDS_P2;PMS_P1;PMS_P2;Temp;Humidity;BMP_temperature;BMP_pressure;BME280_temperature;BME280_humidity;BME280_pressure;Samples;Min_cycle;Max_cycle;Signal;HPM_P1;HPM_P2
2023/08/25 00:02:21;;;;;;;0.30;0.30;;;;;;;;;;5073181;28;20199;-85
2023/08/25 00:04:51;;;;;;;11.23;1.13;;;;;;;;;;5073315;28;20208;-85
2023/08/25 00:07:21;;;;;;;2.70;2.60;;;;;;;;;;5072956;28;20200;-85
2023/08/25 00:09:50;;;;;;;10.83;4.50;;;;;;;;;;5073611;28;20207;-85
2023/08/25 00:12:19;;;;;;;1.80;1.20;;;;;;;;;;5073297;28;20207;-85
2023/08/25 00:14:48;;;;;;;2.03;1.97;;;;;;;;;;5072788;28;20235;-85
2023/08/25 00:17:16;;;;;;;17.03;11.57;;;;;;;;;;5073127;28;20255;-86
2023/08/25 00:19:45;;;;;;;2.77;2.43;;;;;;;;;;5072906;28;20218;-85
2023/08/25 00:22:14;;;;;;;6.77;4.33;;;;;;;;;;5072343;28;20203;-86
2023/08/25 00:24:44;;;;;;;4.43;3.60;;;;;;;;;;5072597;28;20242;-86
2023/08/25 00:27:13;;;;;;;9.90;7.10;;;;;;;;;;5073204;28;20216;-91
2023/08/25 00:29:41;;;;;;;2.67;2.13;;;;;;;;;;5073346;28;20199;-91
2023/08/25 00:32:10;;;;;;;2.27;2.03;;;;;;;;;;5072611;28;20197;-90
2023/08/25 00:34:38;;;;;;;0.93;0.93;;;;;;;;;;5073010;28;20199;-86
2023/08/25 00:37:07;;;;;;;1.80;1.67;;;;;;;;;;5072321;28;20202;-85
2023/08/25 00:39:35;;;;;;;1.10;1.10;;;;;;;;;;5072525;28;20230;-85
2023/08/25 00:42:06;;;;;;;7.23;4.63;;;;;;;;;;5072474;28;20195;-85
2023/08/25 00:44:34;;;;;;;5.00;3.43;;;;;;;;;;5072664;28;20235;-84
2023/08/25 00:47:03;;;;;;;5.40;4.83;;;;;;;;;;5072750;28;20198;-85
2023/08/25 00:49:31;;;;;;;7.20;3.63;;;;;;;;;;5072266;28;20235;-84
2023/08/25 00:52:00;;;;;;;12.30;9.23;;;;;;;;;;5072410;28;20222;-85
2023/08/25 00:54:30;;;;;;;3.03;1.70;;;;;;;;;;5072582;28;20195;-85
2023/08/25 00:56:59;;;;;;;5.87;2.10;;;;;;;;;;5072161;28;20199;-86
2023/08/25 00:59:29;;;;;;;0.40;0.40;;;;;;;;;;5072436;28;20251;-85
2023/08/25 01:01:57;;;;;;;0.30;0.30;;;;;;;;;;5072312;28;20215;-85
2023/08/25 01:04:26;;;;;;;0.97;0.97;;;;;;;;;;5072463;28;20233;-85
2023/08/25 01:06:55;;;;;;;5.83;3.60;;;;;;;;;;5072069;28;20195;-86
2023/08/25 01:09:23;;;;;;;1.60;1.50;;;;;;;;;;5072342;28;20198;-85
2023/08/25 01:11:56;;;;;;;2.17;1.97;;;;;;;;;;5072002;28;20202;-85
2023/08/25 01:14:30;;;;;;;0.30;0.30;;;;;;;;;;5072195;28;20208;-85
2023/08/25 01:17:04;;;;;;;3.43;3.10;;;;;;;;;;5071857;28;20208;-85
2023/08/25 01:19:51;;;;;;;3.47;2.90;;;;;;;;;;5071599;28;20203;-86
2023/08/25 01:22:23;;;;;;;1.13;1.13;;;;;;;;;;5062426;28;20193;-85
2023/08/25 01:24:54;;;;;;;1.70;1.60;;;;;;;;;;5071290;28;20223;-85
2023/08/25 01:27:24;;;;;;;0.20;0.20;;;;;;;;;;5071761;28;20203;-86
2023/08/25 01:29:53;;;;;;;0.67;0.67;;;;;;;;;;5072088;28;20203;-85
2023/08/25 01:32:21;;;;;;;10.27;9.07;;;;;;;;;;5071873;28;20199;-85
2023/08/25 01:34:50;;;;;;;14.63;10.97;;;;;;;;;;5071695;28;20199;-85
2023/08/25 01:37:20;;;;;;;14.90;13.40;;;;;;;;;;5071634;28;20201;-85
2023/08/25 01:39:50;;;;;;;16.23;10.63;;;;;;;;;;5071496;28;20199;-84
2023/08/25 01:42:22;;;;;;;14.97;13.43;;;;;;;;;;5071471;28;20208;-85
2023/08/25 01:44:53;;;;;;;17.73;10.17;;;;;;;;;;5071733;28;20225;-90
2023/08/25 01:47:24;;;;;;;19.57;11.80;;;;;;;;;;5071885;28;20205;-90
2023/08/25 01:49:54;;;;;;;13.77;7.53;;;;;;;;;;5071749;28;20240;-90
2023/08/25 01:52:23;;;;;;;15.00;9.00;;;;;;;;;;5071243;28;20220;-90
2023/08/25 01:54:51;;;;;;;17.43;10.60;;;;;;;;;;5072158;28;20292;-91
2023/08/25 01:57:20;;;;;;;13.73;9.53;;;;;;;;;;5072326;28;20380;-90
2023/08/25 01:59:48;;;;;;;7.93;4.97;;;;;;;;;;5071814;28;20201;-90
2023/08/25 02:02:18;;;;;;;0.57;0.57;;;;;;;;;;5071920;28;20224;-90
2023/08/25 02:04:47;;;;;;;7.40;5.97;;;;;;;;;;5071959;28;20274;-90
2023/08/25 02:07:16;;;;;;;1.47;1.37;;;;;;;;;;5071594;28;20218;-90
2023/08/25 02:09:44;;;;;;;0.40;0.40;;;;;;;;;;5071491;28;20192;-89
2023/08/25 02:12:13;;;;;;;0.30;0.30;;;;;;;;;;5071717;28;20205;-89
2023/08/25 02:14:41;;;;;;;0.97;0.97;;;;;;;;;;5071985;28;20196;-91
2023/08/25 02:17:10;;;;;;;3.37;3.10;;;;;;;;;;5071396;28;20216;-90
2023/08/25 02:19:40;;;;;;;12.07;6.43;;;;;;;;;;5071559;28;20206;-89
2023/08/25 02:22:08;;;;;;;2.93;2.70;;;;;;;;;;5071596;28;20215;-90
2023/08/25 02:24:37;;;;;;;0.20;0.20;;;;;;;;;;5071766;28;20240;-90
2023/08/25 02:27:05;;;;;;;0.83;0.83;;;;;;;;;;5071265;28;20213;-90
2023/08/25 02:29:34;;;;;;;6.70;4.70;;;;;;;;;;5071512;28;20231;-90
2023/08/25 02:32:03;;;;;;;8.33;6.97;;;;;;;;;;5071520;28;20208;-91
2023/08/25 02:34:32;;;;;;;23.17;16.73;;;;;;;;;;5071481;28;20202;-90
2023/08/25 02:37:02;;;;;;;24.67;15.87;;;;;;;;;;5071407;28;20748;-91
2023/08/25 02:39:30;;;;;;;23.03;18.07;;;;;;;;;;5071924;28;20214;-90
2023/08/25 02:41:59;;;;;;;1.33;1.23;;;;;;;;;;5071626;28;20197;-90
2023/08/25 02:44:27;;;;;;;12.00;8.10;;;;;;;;;;5071783;28;20320;-90
2023/08/25 02:46:56;;;;;;;0.93;0.93;;;;;;;;;;5071440;28;20190;-90
2023/08/25 02:49:24;;;;;;;0.90;0.90;;;;;;;;;;5071711;28;20239;-90
2023/08/25 02:51:56;;;;;;;3.77;3.43;;;;;;;;;;5074602;28;20218;-90
2023/08/25 02:54:26;;;;;;;12.23;10.67;;;;;;;;;;5074631;28;20249;-90
2023/08/25 02:56:55;;;;;;;7.97;3.83;;;;;;;;;;5075167;28;20284;-90
2023/08/25 02:59:24;;;;;;;20.60;14.20;;;;;;;;;;5075881;28;20214;-90
2023/08/25 03:01:52;;;;;;;22.00;13.80;;;;;;;;;;5074443;28;20196;-89
2023/08/25 03:04:22;;;;;;;23.00;16.40;;;;;;;;;;5074756;28;20353;-89
2023/08/25 03:06:50;;;;;;;18.50;14.60;;;;;;;;;;5075022;28;20200;-90
2023/08/25 03:09:19;;;;;;;20.90;12.33;;;;;;;;;;5075154;28;20289;-89
2023/08/25 03:11:49;;;;;;;32.40;21.10;;;;;;;;;;5074283;28;20205;-91
2023/08/25 03:14:18;;;;;;;27.47;19.20;;;;;;;;;;5075117;28;20459;-90
2023/08/25 03:16:46;;;;;;;16.40;9.77;;;;;;;;;;5075048;28;20341;-90
2023/08/25 03:19:15;;;;;;;23.17;13.27;;;;;;;;;;5075028;28;20207;-90
2023/08/25 03:21:44;;;;;;;24.27;15.63;;;;;;;;;;5074378;28;20214;-90
2023/08/25 03:24:12;;;;;;;11.27;7.27;;;;;;;;;;5074513;28;20205;-90
2023/08/25 03:26:40;;;;;;;28.93;17.10;;;;;;;;;;5074854;28;20205;-90
2023/08/25 03:29:10;;;;;;;13.20;10.30;;;;;;;;;;5074014;28;20193;-89
2023/08/25 03:31:39;;;;;;;19.40;9.77;;;;;;;;;;5074441;28;20208;-90
2023/08/25 03:34:07;;;;;;;4.43;4.00;;;;;;;;;;5074989;28;20210;-90
2023/08/25 03:36:36;;;;;;;13.03;7.10;;;;;;;;;;5074263;28;20194;-90
2023/08/25 03:39:05;;;;;;;12.93;7.30;;;;;;;;;;5074100;28;20201;-90
2023/08/25 03:41:33;;;;;;;6.67;4.53;;;;;;;;;;5074087;28;20197;-90
2023/08/25 03:44:02;;;;;;;17.23;11.13;;;;;;;;;;5074298;28;20259;-91
2023/08/25 03:46:32;;;;;;;4.10;3.70;;;;;;;;;;5073834;28;20322;-90
2023/08/25 03:49:02;;;;;;;0.33;0.33;;;;;;;;;;5073796;28;20209;-85
2023/08/25 03:51:31;;;;;;;1.80;1.43;;;;;;;;;;5073027;28;20303;-85
2023/08/25 03:54:00;;;;;;;1.03;1.03;;;;;;;;;;5073643;28;20219;-85
2023/08/25 03:56:29;;;;;;;1.53;1.43;;;;;;;;;;5073606;28;20199;-85
2023/08/25 03:58:57;;;;;;;0.37;0.37;;;;;;;;;;5073467;28;20253;-85
2023/08/25 04:01:26;;;;;;;1.50;1.43;;;;;;;;;;5072945;28;20203;-85
2023/08/25 04:03:56;;;;;;;1.50;1.40;;;;;;;;;;5073246;28;20196;-85
2023/08/25 04:06:24;;;;;;;0.20;0.20;;;;;;;;;;5073595;28;20220;-84
2023/08/25 04:08:53;;;;;;;0.70;0.70;;;;;;;;;;5073507;28;20208;-85
2023/08/25 04:11:21;;;;;;;0.93;0.93;;;;;;;;;;5074134;28;20204;-90
2023/08/25 04:13:50;;;;;;;1.13;1.13;;;;;;;;;;5075440;28;20207;-89
2023/08/25 04:16:18;;;;;;;7.90;1.13;;;;;;;;;;5076067;28;20199;-90
2023/08/25 04:18:47;;;;;;;3.40;3.10;;;;;;;;;;5076006;28;20284;-91
2023/08/25 04:21:17;;;;;;;8.83;5.37;;;;;;;;;;5075679;28;20194;-91
2023/08/25 04:23:48;;;;;;;21.53;11.67;;;;;;;;;;5074730;28;20189;-89
2023/08/25 04:26:20;;;;;;;30.53;19.00;;;;;;;;;;5076308;28;20230;-89
2023/08/25 04:28:48;;;;;;;23.67;6.07;;;;;;;;;;5076603;28;20201;-89
2023/08/25 04:31:20;;;;;;;40.53;17.57;;;;;;;;;;5075597;28;20190;-90
2023/08/25 04:33:48;;;;;;;2.33;2.13;;;;;;;;;;5075584;28;20205;-90
2023/08/25 04:36:21;;;;;;;38.70;20.60;;;;;;;;;;5075721;28;20205;-89
2023/08/25 04:38:50;;;;;;;6.03;5.53;;;;;;;;;;5074570;28;20202;-85
2023/08/25 04:41:19;;;;;;;39.97;7.67;;;;;;;;;;5073066;28;20216;-86
2023/08/25 04:43:47;;;;;;;6.60;2.17;;;;;;;;;;5073267;28;20200;-85
2023/08/25 04:46:16;;;;;;;7.27;6.10;;;;;;;;;;5072931;28;20226;-85
2023/08/25 04:48:46;;;;;;;2.57;2.37;;;;;;;;;;5072865;28;20208;-86
2023/08/25 04:51:14;;;;;;;5.50;3.43;;;;;;;;;;5072453;28;20335;-85
2023/08/25 04:53:45;;;;;;;20.67;12.43;;;;;;;;;;5072982;28;20203;-85
2023/08/25 04:56:17;;;;;;;3.60;3.30;;;;;;;;;;5072992;28;20202;-85
2023/08/25 04:58:46;;;;;;;0.70;0.70;;;;;;;;;;5073008;28;20196;-85
2023/08/25 05:01:17;;;;;;;1.03;1.03;;;;;;;;;;5072679;28;20212;-90
2023/08/25 05:03:48;;;;;;;2.37;2.27;;;;;;;;;;5074116;28;20288;-90
2023/08/25 05:06:17;;;;;;;1.73;1.73;;;;;;;;;;5075054;28;20281;-89
2023/08/25 05:08:50;;;;;;;0.40;0.40;;;;;;;;;;5075715;28;20231;-90
2023/08/25 05:11:21;;;;;;;4.73;4.33;;;;;;;;;;5076632;28;20194;-88
2023/08/25 05:13:50;;;;;;;3.63;3.30;;;;;;;;;;5075103;28;20198;-90
2023/08/25 05:16:19;;;;;;;1.93;1.93;;;;;;;;;;5076448;28;20357;-90
2023/08/25 05:18:48;;;;;;;0.77;0.77;;;;;;;;;;5076039;28;20200;-87
2023/08/25 05:21:16;;;;;;;1.40;1.37;;;;;;;;;;5075315;28;20216;-90
2023/08/25 05:23:47;;;;;;;2.40;2.10;;;;;;;;;;5074911;28;20203;-90
2023/08/25 05:26:17;;;;;;;1.77;1.70;;;;;;;;;;5074957;28;20263;-85
2023/08/25 05:28:45;;;;;;;1.43;1.33;;;;;;;;;;5072486;28;20193;-85
2023/08/25 05:31:14;;;;;;;1.07;1.07;;;;;;;;;;5072314;28;20208;-85
2023/08/25 05:33:43;;;;;;;5.00;2.83;;;;;;;;;;5071702;28;20218;-86
2023/08/25 05:36:11;;;;;;;0.73;0.73;;;;;;;;;;5073026;28;20206;-90
2023/08/25 05:38:40;;;;;;;0.93;0.93;;;;;;;;;;5075308;28;20191;-90
2023/08/25 05:41:11;;;;;;;0.93;0.93;;;;;;;;;;5075547;28;20203;-90
2023/08/25 05:43:43;;;;;;;1.43;1.43;;;;;;;;;;5074951;28;20215;-90
2023/08/25 05:46:11;;;;;;;13.57;2.80;;;;;;;;;;5074131;28;20218;-89
2023/08/25 05:48:40;;;;;;;2.23;1.57;;;;;;;;;;5074418;28;20289;-88
2023/08/25 05:51:09;;;;;;;5.63;4.03;;;;;;;;;;5072968;28;20301;-89
2023/08/25 05:53:37;;;;;;;2.20;2.10;;;;;;;;;;5074397;28;20203;-89
2023/08/25 05:56:06;;;;;;;3.23;3.03;;;;;;;;;;5074887;28;20421;-90
2023/08/25 05:58:37;;;;;;;4.90;4.30;;;;;;;;;;5075761;28;20192;-89
2023/08/25 06:01:07;;;;;;;3.63;2.27;;;;;;;;;;5074732;28;20206;-90
2023/08/25 06:03:36;;;;;;;1.33;1.23;;;;;;;;;;5075730;28;20203;-90
2023/08/25 06:06:05;;;;;;;5.13;4.73;;;;;;;;;;5074603;28;20207;-88
2023/08/25 06:08:34;;;;;;;1.57;0.90;;;;;;;;;;5075504;28;20244;-88
2023/08/25 06:11:03;;;;;;;34.50;17.67;;;;;;;;;;5075290;28;20199;-89
2023/08/25 06:13:32;;;;;;;11.10;7.47;;;;;;;;;;5072886;28;20203;-86
2023/08/25 06:16:01;;;;;;;2.90;2.70;;;;;;;;;;5072416;28;20197;-86
2023/08/25 06:18:31;;;;;;;1.40;1.40;;;;;;;;;;5072572;28;20277;-85
2023/08/25 06:20:59;;;;;;;4.03;3.67;;;;;;;;;;5072966;28;20201;-85
2023/08/25 06:23:28;;;;;;;6.70;3.97;;;;;;;;;;5072979;28;20199;-85
2023/08/25 06:25:56;;;;;;;5.83;5.20;;;;;;;;;;5077691;28;20259;-89
2023/08/25 06:28:26;;;;;;;1.30;1.30;;;;;;;;;;5079290;28;20191;-90
2023/08/25 06:30:54;;;;;;;2.10;2.00;;;;;;;;;;5080667;28;20212;-89
2023/08/25 06:33:23;;;;;;;2.07;1.90;;;;;;;;;;5078755;28;20202;-86
2023/08/25 06:35:53;;;;;;;1.03;1.03;;;;;;;;;;5078762;28;20199;-89
2023/08/25 06:38:22;;;;;;;1.73;1.63;;;;;;;;;;5077545;28;20199;-84
2023/08/25 06:40:50;;;;;;;3.13;2.77;;;;;;;;;;5076231;28;20209;-84
2023/08/25 06:43:19;;;;;;;25.03;13.83;;;;;;;;;;5075518;28;20200;-84
2023/08/25 06:45:48;;;;;;;1.70;1.60;;;;;;;;;;5076064;28;20477;-84
2023/08/25 06:48:19;;;;;;;5.13;4.67;;;;;;;;;;5075945;28;20273;-85
2023/08/25 06:50:48;;;;;;;1.70;1.60;;;;;;;;;;5078241;28;20334;-89
2023/08/25 06:53:19;;;;;;;1.60;1.50;;;;;;;;;;5079208;28;20207;-89
2023/08/25 06:55:47;;;;;;;11.63;7.10;;;;;;;;;;5079564;28;20199;-89
2023/08/25 06:58:20;;;;;;;9.70;5.93;;;;;;;;;;5080395;28;20236;-88
2023/08/25 07:00:50;;;;;;;3.13;2.83;;;;;;;;;;5080516;28;20263;-88
2023/08/25 07:03:19;;;;;;;7.63;5.97;;;;;;;;;;5080590;28;20208;-89
2023/08/25 07:05:47;;;;;;;7.60;5.97;;;;;;;;;;5079074;28;20284;-89
2023/08/25 07:08:20;;;;;;;9.43;8.17;;;;;;;;;;5080502;28;20216;-89
2023/08/25 07:10:50;;;;;;;6.03;4.00;;;;;;;;;;5080135;28;20196;-89
2023/08/25 07:13:19;;;;;;;7.57;5.30;;;;;;;;;;5079579;28;20205;-89
2023/08/25 07:15:48;;;;;;;5.97;0.87;;;;;;;;;;5079106;28;20213;-90
2023/08/25 07:18:19;;;;;;;2.53;2.33;;;;;;;;;;5078744;28;20198;-89
2023/08/25 07:20:48;;;;;;;5.13;4.63;;;;;;;;;;5078415;28;20203;-89
2023/08/25 07:23:17;;;;;;;1.90;1.80;;;;;;;;;;5077066;28;20209;-90
2023/08/25 07:25:47;;;;;;;0.33;0.33;;;;;;;;;;5077396;28;20261;-89
2023/08/25 07:28:17;;;;;;;0.90;0.90;;;;;;;;;;5077039;28;20242;-90
2023/08/25 07:30:46;;;;;;;1.37;1.33;;;;;;;;;;5077124;28;20227;-88
2023/08/25 07:33:15;;;;;;;6.30;5.60;;;;;;;;;;5078264;28;20461;-90
2023/08/25 07:35:44;;;;;;;9.63;3.10;;;;;;;;;;5077378;28;20200;-90
2023/08/25 07:38:14;;;;;;;6.60;3.47;;;;;;;;;;5076982;28;20199;-91
2023/08/25 07:40:44;;;;;;;1.23;1.23;;;;;;;;;;5077634;28;20193;-90
2023/08/25 07:43:15;;;;;;;7.40;5.40;;;;;;;;;;5075327;28;20195;-85
2023/08/25 07:45:45;;;;;;;1.93;1.83;;;;;;;;;;5075092;28;20205;-85
2023/08/25 07:48:14;;;;;;;4.40;3.20;;;;;;;;;;5075243;28;20226;-85
2023/08/25 07:50:45;;;;;;;3.27;2.80;;;;;;;;;;5075173;28;20236;-85
2023/08/25 07:53:14;;;;;;;5.57;4.60;;;;;;;;;;5075120;28;20212;-85
2023/08/25 07:55:43;;;;;;;0.80;0.80;;;;;;;;;;5074487;28;20191;-84
2023/08/25 07:58:12;;;;;;;6.73;5.83;;;;;;;;;;5075034;28;20265;-85
2023/08/25 08:00:42;;;;;;;0.90;0.90;;;;;;;;;;5074707;28;20256;-85
2023/08/25 08:03:15;;;;;;;3.47;2.20;;;;;;;;;;5074056;28;20197;-85
2023/08/25 08:05:44;;;;;;;0.67;0.67;;;;;;;;;;5074412;28;20204;-85
2023/08/25 08:08:13;;;;;;;6.50;5.00;;;;;;;;;;5074624;28;20218;-85
2023/08/25 08:10:45;;;;;;;3.07;2.97;;;;;;;;;;5074709;28;20199;-85
2023/08/25 08:13:13;;;;;;;14.97;7.00;;;;;;;;;;5074509;28;20195;-85
2023/08/25 08:15:42;;;;;;;7.17;6.50;;;;;;;;;;5074954;28;20197;-85
2023/08/25 08:18:10;;;;;;;8.93;5.87;;;;;;;;;;5074676;28;20204;-85
2023/08/25 08:20:42;;;;;;;7.40;4.67;;;;;;;;;;5074106;28;20260;-85
2023/08/25 08:23:11;;;;;;;7.10;5.83;;;;;;;;;;5073985;28;20213;-85
2023/08/25 08:25:40;;;;;;;4.37;3.97;;;;;;;;;;5074535;28;20207;-85
2023/08/25 08:28:09;;;;;;;10.80;7.80;;;;;;;;;;5074255;28;20278;-85
2023/08/25 08:30:38;;;;;;;0.77;0.77;;;;;;;;;;5073906;28;20198;-86
2023/08/25 08:33:07;;;;;;;7.07;3.83;;;;;;;;;;5074475;28;20295;-85
2023/08/25 08:35:38;;;;;;;1.90;1.80;;;;;;;;;;5074021;28;20200;-85
2023/08/25 08:38:08;;;;;;;2.00;1.80;;;;;;;;;;5073969;28;20211;-86
2023/08/25 08:40:38;;;;;;;2.80;2.60;;;;;;;;;;5072836;28;20205;-85
2023/08/25 08:43:10;;;;;;;4.30;3.97;;;;;;;;;;5074481;28;20206;-85
2023/08/25 08:45:40;;;;;;;0.73;0.73;;;;;;;;;;5073972;28;20205;-85
2023/08/25 08:48:09;;;;;;;4.33;2.60;;;;;;;;;;5073360;28;20310;-85
2023/08/25 08:50:39;;;;;;;14.13;9.97;;;;;;;;;;5072996;28;20237;-86
2023/08/25 08:53:09;;;;;;;5.77;5.10;;;;;;;;;;5073212;28;20197;-86
2023/08/25 08:55:39;;;;;;;14.17;9.90;;;;;;;;;;5073658;28;20200;-85
2023/08/25 08:58:08;;;;;;;5.53;4.97;;;;;;;;;;5073553;28;20203;-86
2023/08/25 09:00:40;;;;;;;8.90;8.13;;;;;;;;;;5073225;28;20192;-86
2023/08/25 09:03:11;;;;;;;7.67;5.63;;;;;;;;;;5073151;28;20197;-86
2023/08/25 09:05:41;;;;;;;6.67;6.17;;;;;;;;;;5073166;28;20510;-86
2023/08/25 09:08:11;;;;;;;1.33;1.30;;;;;;;;;;5073224;28;20227;-85
2023/08/25 09:10:43;;;;;;;3.03;2.60;;;;;;;;;;5073969;28;20216;-86
2023/08/25 09:13:12;;;;;;;3.60;3.23;;;;;;;;;;5073231;28;20204;-84
2023/08/25 09:15:41;;;;;;;8.73;5.30;;;;;;;;;;5072463;28;20295;-85
2023/08/25 09:18:10;;;;;;;11.10;6.27;;;;;;;;;;5073280;28;20197;-86
2023/08/25 09:20:39;;;;;;;11.63;5.27;;;;;;;;;;5072356;28;20193;-85
2023/08/25 09:23:08;;;;;;;5.73;3.57;;;;;;;;;;5073063;28;20344;-86
2023/08/25 09:25:41;;;;;;;1.77;1.70;;;;;;;;;;5072747;28;20252;-86
2023/08/25 09:28:10;;;;;;;2.83;2.20;;;;;;;;;;5073631;28;20210;-85
2023/08/25 09:30:42;;;;;;;6.63;5.77;;;;;;;;;;5074093;28;20200;-92
2023/08/25 09:33:13;;;;;;;5.27;4.23;;;;;;;;;;5076428;28;20206;-89
2023/08/25 09:35:44;;;;;;;7.27;4.47;;;;;;;;;;5078151;28;20228;-91
2023/08/25 09:38:21;;;;;;;5.77;3.53;;;;;;;;;;5077884;28;20198;-90
2023/08/25 09:40:52;;;;;;;4.07;3.73;;;;;;;;;;5077122;28;20297;-91
2023/08/25 09:43:29;;;;;;;8.50;3.87;;;;;;;;;;5076081;28;20222;-90
2023/08/25 09:45:58;;;;;;;4.13;3.33;;;;;;;;;;5076578;28;20194;-90
2023/08/25 09:48:27;;;;;;;6.40;5.07;;;;;;;;;;5073939;28;20260;-85
2023/08/25 09:50:56;;;;;;;8.00;4.67;;;;;;;;;;5071723;28;20249;-85
2023/08/25 09:53:25;;;;;;;8.63;7.83;;;;;;;;;;5072537;28;20289;-85
2023/08/25 09:56:01;;;;;;;5.80;4.90;;;;;;;;;;5072000;28;20485;-86
2023/08/25 09:58:30;;;;;;;5.17;4.43;;;;;;;;;;5072528;28;20205;-86
2023/08/25 10:00:59;;;;;;;6.97;5.37;;;;;;;;;;5071418;28;20202;-85
2023/08/25 10:03:28;;;;;;;3.93;3.20;;;;;;;;;;5072574;28;20264;-86
2023/08/25 10:05:58;;;;;;;6.50;5.23;;;;;;;;;;5072800;28;20277;-86
2023/08/25 10:08:27;;;;;;;6.47;5.37;;;;;;;;;;5072049;28;20248;-87
2023/08/25 10:10:58;;;;;;;4.13;3.87;;;;;;;;;;5072309;28;20188;-86
2023/08/25 10:13:28;;;;;;;10.43;9.17;;;;;;;;;;5073194;28;20197;-86
2023/08/25 10:16:02;;;;;;;9.40;7.80;;;;;;;;;;5073318;28;20223;-86
2023/08/25 10:18:33;;;;;;;8.97;6.23;;;;;;;;;;5072749;28;20204;-85
2023/08/25 10:21:02;;;;;;;6.73;4.90;;;;;;;;;;5072829;28;20205;-86
2023/08/25 10:23:32;;;;;;;8.63;7.60;;;;;;;;;;5072009;28;20215;-85
2023/08/25 10:26:02;;;;;;;5.27;4.07;;;;;;;;;;5072247;28;20203;-86
2023/08/25 10:28:32;;;;;;;12.67;8.23;;;;;;;;;;5076340;28;20342;-90
2023/08/25 10:31:03;;;;;;;1.70;1.60;;;;;;;;;;5075777;28;20208;-91
2023/08/25 10:33:46;;;;;;;10.03;7.00;;;;;;;;;;5077263;28;20206;-91
2023/08/25 10:36:18;;;;;;;6.50;5.07;;;;;;;;;;5075481;28;20207;-91
2023/08/25 10:39:07;;;;;;;7.13;5.07;;;;;;;;;;5076835;28;20295;-90
2023/08/25 10:41:43;;;;;;;7.80;5.80;;;;;;;;;;5075354;28;20196;-91
2023/08/25 10:44:21;;;;;;;6.87;5.23;;;;;;;;;;5074832;28;20269;-91
2023/08/25 10:46:51;;;;;;;6.77;6.13;;;;;;;;;;5075004;28;20204;-91
2023/08/25 10:49:19;;;;;;;11.17;7.00;;;;;;;;;;5075621;28;20240;-90
2023/08/25 10:51:48;;;;;;;8.00;5.37;;;;;;;;;;5074221;28;20339;-90
2023/08/25 10:54:18;;;;;;;10.57;6.60;;;;;;;;;;5075053;28;20209;-90
2023/08/25 10:56:53;;;;;;;8.30;7.50;;;;;;;;;;5075364;28;20249;-91
2023/08/25 10:59:23;;;;;;;5.80;4.03;;;;;;;;;;5075045;28;20194;-90
2023/08/25 11:01:55;;;;;;;7.53;6.57;;;;;;;;;;5074582;28;20263;-91
2023/08/25 11:04:24;;;;;;;5.53;3.63;;;;;;;;;;5074480;28;20264;-90
2023/08/25 11:06:53;;;;;;;4.40;4.00;;;;;;;;;;5074761;28;20211;-90
2023/08/25 11:09:35;;;;;;;9.13;5.80;;;;;;;;;;5073740;28;20247;-89
2023/08/25 11:12:07;;;;;;;5.47;3.30;;;;;;;;;;5073919;28;20189;-86
2023/08/25 11:14:37;;;;;;;5.60;4.43;;;;;;;;;;5075920;28;20204;-86
2023/08/25 11:17:06;;;;;;;6.00;4.87;;;;;;;;;;5076128;28;20192;-90
2023/08/25 11:19:37;;;;;;;5.93;4.83;;;;;;;;;;5078154;28;20220;-88
2023/08/25 11:22:07;;;;;;;3.93;3.40;;;;;;;;;;5075648;28;20209;-86
2023/08/25 11:24:38;;;;;;;2.37;1.97;;;;;;;;;;5075070;28;20299;-86
2023/08/25 11:27:09;;;;;;;5.00;3.70;;;;;;;;;;5074602;28;20197;-86
2023/08/25 11:29:39;;;;;;;5.10;2.53;;;;;;;;;;5075267;28;20259;-85
2023/08/25 11:32:11;;;;;;;4.37;2.97;;;;;;;;;;5077102;28;20251;-89
2023/08/25 11:34:40;;;;;;;3.93;3.60;;;;;;;;;;5077894;28;20207;-91
2023/08/25 11:37:12;;;;;;;3.83;3.47;;;;;;;;;;5077568;28;20228;-91
2023/08/25 11:39:46;;;;;;;6.43;5.43;;;;;;;;;;5078931;28;20201;-91
2023/08/25 11:42:22;;;;;;;1.33;1.23;;;;;;;;;;5078442;28;20232;-90
2023/08/25 11:44:52;;;;;;;10.00;5.80;;;;;;;;;;5078915;28;20236;-89
2023/08/25 11:47:22;;;;;;;5.40;4.57;;;;;;;;;;5077823;28;20212;-89
2023/08/25 11:49:51;;;;;;;5.57;3.30;;;;;;;;;;5078067;28;20247;-92
2023/08/25 11:52:20;;;;;;;6.80;4.33;;;;;;;;;;5077505;28;20300;-90
2023/08/25 11:54:50;;;;;;;8.33;4.17;;;;;;;;;;5076726;28;20215;-89
2023/08/25 11:57:33;;;;;;;3.43;3.17;;;;;;;;;;5077528;28;20194;-91
2023/08/25 12:00:03;;;;;;;3.33;2.00;;;;;;;;;;5078030;28;20215;-91
2023/08/25 12:02:32;;;;;;;2.33;2.13;;;;;;;;;;5077798;28;20201;-90
2023/08/25 12:05:02;;;;;;;5.07;4.40;;;;;;;;;;5077063;28;20274;-90
2023/08/25 12:07:32;;;;;;;6.67;4.23;;;;;;;;;;5077849;28;20197;-91
2023/08/25 12:10:03;;;;;;;6.73;4.73;;;;;;;;;;5078175;28;20235;-91
2023/08/25 12:12:37;;;;;;;8.73;3.00;;;;;;;;;;5076948;28;20223;-91
2023/08/25 12:15:08;;;;;;;4.00;3.57;;;;;;;;;;5077673;28;20211;-90
2023/08/25 12:17:37;;;;;;;5.37;3.93;;;;;;;;;;5077430;28;20231;-91
2023/08/25 12:20:13;;;;;;;10.97;2.77;;;;;;;;;;5078292;28;20258;-91
2023/08/25 12:22:50;;;;;;;8.33;4.00;;;;;;;;;;5077572;28;20211;-90
2023/08/25 12:25:19;;;;;;;3.13;2.87;;;;;;;;;;5077419;28;20200;-86
2023/08/25 12:27:49;;;;;;;2.03;1.83;;;;;;;;;;5074432;28;20271;-85
2023/08/25 12:30:18;;;;;;;6.27;2.67;;;;;;;;;;5074019;28;20287;-86
2023/08/25 12:32:47;;;;;;;11.17;4.53;;;;;;;;;;5073418;28;20194;-85
2023/08/25 12:35:22;;;;;;;2.30;2.10;;;;;;;;;;5074061;28;20222;-85
2023/08/25 12:37:51;;;;;;;4.33;3.03;;;;;;;;;;5073837;28;20215;-85
2023/08/25 12:40:20;;;;;;;3.17;2.87;;;;;;;;;;5073597;28;20213;-85
2023/08/25 12:42:55;;;;;;;3.73;2.90;;;;;;;;;;5073824;28;20206;-85
2023/08/25 12:45:24;;;;;;;3.17;2.87;;;;;;;;;;5074498;28;20220;-86
2023/08/25 12:47:53;;;;;;;5.00;4.00;;;;;;;;;;5073974;28;20199;-90
2023/08/25 12:50:23;;;;;;;3.60;2.77;;;;;;;;;;5076213;28;20231;-90
2023/08/25 12:52:52;;;;;;;4.63;3.50;;;;;;;;;;5076649;28;20307;-88
2023/08/25 12:55:21;;;;;;;5.80;2.47;;;;;;;;;;5075664;28;20203;-90
2023/08/25 12:57:50;;;;;;;2.50;2.30;;;;;;;;;;5076066;28;20201;-90
2023/08/25 13:00:21;;;;;;;8.23;4.07;;;;;;;;;;5076555;28;20196;-90
2023/08/25 13:02:50;;;;;;;4.30;3.90;;;;;;;;;;5076581;28;20197;-89
2023/08/25 13:05:27;;;;;;;3.70;3.20;;;;;;;;;;5072941;28;20207;-86
2023/08/25 13:07:55;;;;;;;2.57;1.70;;;;;;;;;;5073755;28;20201;-86
2023/08/25 13:10:25;;;;;;;4.43;3.70;;;;;;;;;;5073857;28;20220;-86
2023/08/25 13:12:54;;;;;;;3.67;2.40;;;;;;;;;;5073850;28;20206;-86
2023/08/25 13:15:24;;;;;;;2.70;2.20;;;;;;;;;;5073009;28;20212;-86
2023/08/25 13:17:52;;;;;;;1.77;1.67;;;;;;;;;;5073652;28;20196;-86
2023/08/25 13:20:22;;;;;;;10.70;4.00;;;;;;;;;;5073826;28;20211;-86
2023/08/25 13:22:50;;;;;;;2.17;2.03;;;;;;;;;;5073319;28;20196;-86
2023/08/25 13:25:19;;;;;;;11.23;3.20;;;;;;;;;;5073444;28;20259;-86
2023/08/25 13:27:48;;;;;;;2.30;2.10;;;;;;;;;;5073757;28;20282;-86
2023/08/25 13:30:16;;;;;;;2.67;2.43;;;;;;;;;;5073677;28;20269;-86
2023/08/25 13:32:46;;;;;;;3.10;2.53;;;;;;;;;;5073164;28;20197;-85
2023/08/25 13:35:17;;;;;;;2.20;2.00;;;;;;;;;;5072490;28;20278;-85
2023/08/25 13:37:46;;;;;;;5.33;1.10;;;;;;;;;;5073548;28;20205;-86
2023/08/25 13:40:15;;;;;;;2.17;1.97;;;;;;;;;;5072288;28;20221;-85
2023/08/25 13:42:44;;;;;;;1.77;1.53;;;;;;;;;;5072525;28;20197;-85
2023/08/25 13:45:12;;;;;;;2.30;1.90;;;;;;;;;;5072933;28;20205;-85
2023/08/25 13:47:41;;;;;;;2.53;1.87;;;;;;;;;;5072751;28;20295;-85
2023/08/25 13:50:11;;;;;;;1.93;1.47;;;;;;;;;;5072397;28;20237;-85
2023/08/25 13:52:40;;;;;;;2.20;1.60;;;;;;;;;;5072389;28;20232;-86
2023/08/25 13:55:09;;;;;;;1.70;1.60;;;;;;;;;;5072948;28;20220;-85
2023/08/25 13:57:38;;;;;;;2.57;1.83;;;;;;;;;;5072811;28;20235;-90
2023/08/25 14:00:08;;;;;;;2.97;2.13;;;;;;;;;;5075357;28;20194;-89
2023/08/25 14:02:41;;;;;;;1.77;1.67;;;;;;;;;;5073806;28;20205;-90
2023/08/25 14:05:12;;;;;;;2.60;1.97;;;;;;;;;;5071757;28;20197;-89
2023/08/25 14:07:41;;;;;;;3.70;2.33;;;;;;;;;;5072050;28;20216;-85
2023/08/25 14:10:10;;;;;;;4.43;2.30;;;;;;;;;;5071776;28;20204;-89
2023/08/25 14:12:39;;;;;;;1.73;1.57;;;;;;;;;;5072114;28;20207;-90
2023/08/25 14:15:08;;;;;;;5.30;2.23;;;;;;;;;;5072794;28;20201;-89
2023/08/25 14:17:36;;;;;;;2.60;2.20;;;;;;;;;;5072001;28;20216;-89
2023/08/25 14:20:06;;;;;;;1.30;1.20;;;;;;;;;;5072677;28;20216;-89
2023/08/25 14:22:36;;;;;;;1.80;1.70;;;;;;;;;;5072078;28;20200;-90
2023/08/25 14:25:05;;;;;;;2.97;1.83;;;;;;;;;;5071503;28;20205;-89
2023/08/25 14:27:33;;;;;;;3.13;2.43;;;;;;;;;;5071794;28;20264;-88
2023/08/25 14:30:02;;;;;;;1.43;1.33;;;;;;;;;;5071981;28;20201;-90
2023/08/25 14:32:30;;;;;;;0.87;0.87;;;;;;;;;;5071901;28;20199;-90
2023/08/25 14:34:59;;;;;;;4.23;2.27;;;;;;;;;;5071815;28;20202;-89
2023/08/25 14:37:28;;;;;;;1.23;1.13;;;;;;;;;;5071128;28;20193;-90
2023/08/25 14:39:58;;;;;;;0.80;0.80;;;;;;;;;;5072208;28;20201;-89
2023/08/25 14:42:26;;;;;;;2.63;1.87;;;;;;;;;;5071886;28;20301;-88
2023/08/25 14:44:55;;;;;;;3.20;2.20;;;;;;;;;;5071707;28;20223;-90
2023/08/25 14:47:24;;;;;;;1.83;1.67;;;;;;;;;;5075788;28;20209;-89
2023/08/25 14:49:54;;;;;;;2.57;1.47;;;;;;;;;;5075754;28;20203;-90
2023/08/25 14:52:22;;;;;;;4.33;1.40;;;;;;;;;;5075008;28;20233;-89
2023/08/25 14:54:52;;;;;;;4.83;1.97;;;;;;;;;;5075931;28;20204;-90